sensor_id;sensor_type;location;lat;lon;timestamp;P1;durP1;ratioP1;P2;durP2;ratioP2
2388;SDS011;1205;47.984;7.668;2023-08-30T00:00:43;3.40;;;3.07;;
2388;SDS011;1205;47.984;7.668;2023-08-30T00:03:10;3.03;;;2.53;;
2388;SDS011;1205;47.984;7.668;2023-08-30T00:05:38;2.80;;;2.70;;
2388;SDS011;1205;47.984;7.668;2023-08-30T00:08:05;2.70;;;2.60;;
2388;SDS011;1205;47.984;7.668;2023-08-30T00:10:30;3.07;;;2.87;;
2388;SDS011;1205;47.984;7.668;2023-08-30T00:12:56;2.57;;;2.47;;
2388;SDS011;1205;47.984;7.668;2023-08-30T00:15:22;3.00;;;2.90;;
2388;SDS011;1205;47.984;7.668;2023-08-30T00:17:47;3.37;;;2.70;;
2388;SDS011;1205;47.984;7.668;2023-08-30T00:20:13;3.13;;;3.03;;
2388;SDS011;1205;47.984;7.668;2023-08-30T00:22:39;4.20;;;3.27;;
2388;SDS011;1205;47.984;7.668;2023-08-30T00:25:04;3.20;;;3.00;;
2388;SDS011;1205;47.984;7.668;2023-08-30T00:27:30;2.77;;;2.67;;
2388;SDS011;1205;47.984;7.668;2023-08-30T00:29:56;4.90;;;3.00;;
2388;SDS011;1205;47.984;7.668;2023-08-30T00:32:21;4.50;;;3.10;;
2388;SDS011;1205;47.984;7.668;2023-08-30T00:34:50;3.13;;;3.03;;
2388;SDS011;1205;47.984;7.668;2023-08-30T00:37:16;7.13;;;3.40;;
2388;SDS011;1205;47.984;7.668;2023-08-30T00:39:42;4.37;;;3.97;;
2388;SDS011;1205;47.984;7.668;2023-08-30T00:42:08;3.23;;;3.10;;
2388;SDS011;1205;47.984;7.668;2023-08-30T00:44:34;4.50;;;4.00;;
2388;SDS011;1205;47.984;7.668;2023-08-30T00:47:00;4.60;;;3.80;;
2388;SDS011;1205;47.984;7.668;2023-08-30T00:49:28;6.20;;;4.30;;
2388;SDS011;1205;47.984;7.668;2023-08-30T00:51:57;4.60;;;4.30;;
2388;SDS011;1205;47.984;7.668;2023-08-30T00:54:26;4.20;;;4.00;;
2388;SDS011;1205;47.984;7.668;2023-08-30T00:56:52;5.67;;;4.00;;
2388;SDS011;1205;47.984;7.668;2023-08-30T00:59:17;4.37;;;3.97;;
2388;SDS011;1205;47.984;7.668;2023-08-30T01:01:43;4.10;;;3.77;;
2388;SDS011;1205;47.984;7.668;2023-08-30T01:04:10;3.63;;;3.50;;
2388;SDS011;1205;47.984;7.668;2023-08-30T01:06:35;4.43;;;4.13;;
2388;SDS011;1205;47.984;7.668;2023-08-30T01:09:01;4.03;;;3.73;;
2388;SDS011;1205;47.984;7.668;2023-08-30T01:11:44;4.40;;;3.93;;
2388;SDS011;1205;47.984;7.668;2023-08-30T01:14:18;4.57;;;3.47;;
2388;SDS011;1205;47.984;7.668;2023-08-30T01:16:46;3.77;;;3.43;;
2388;SDS011;1205;47.984;7.668;2023-08-30T01:21:48;4.63;;;4.23;;
2388;SDS011;1205;47.984;7.668;2023-08-30T01:24:26;3.60;;;3.37;;
2388;SDS011;1205;47.984;7.668;2023-08-30T01:29:38;4.60;;;4.30;;
2388;SDS011;1205;47.984;7.668;2023-08-30T01:32:08;4.20;;;3.80;;
2388;SDS011;1205;47.984;7.668;2023-08-30T01:34:34;4.53;;;4.00;;
2388;SDS011;1205;47.984;7.668;2023-08-30T01:37:02;4.90;;;4.10;;
2388;SDS011;1205;47.984;7.668;2023-08-30T01:39:31;4.50;;;4.20;;
2388;SDS011;1205;47.984;7.668;2023-08-30T01:41:57;3.73;;;3.43;;
2388;SDS011;1205;47.984;7.668;2023-08-30T01:44:28;5.33;;;3.20;;
2388;SDS011;1205;47.984;7.668;2023-08-30T01:46:55;3.77;;;3.63;;
2388;SDS011;1205;47.984;7.668;2023-08-30T01:49:23;3.57;;;3.47;;
2388;SDS011;1205;47.984;7.668;2023-08-30T01:51:51;3.63;;;3.47;;
2388;SDS011;1205;47.984;7.668;2023-08-30T01:54:38;4.17;;;3.80;;
2388;SDS011;1205;47.984;7.668;2023-08-30T01:57:05;3.90;;;3.60;;
2388;SDS011;1205;47.984;7.668;2023-08-30T01:59:31;3.60;;;3.30;;
2388;SDS011;1205;47.984;7.668;2023-08-30T02:01:57;4.23;;;3.83;;
2388;SDS011;1205;47.984;7.668;2023-08-30T02:04:22;4.10;;;3.80;;
2388;SDS011;1205;47.984;7.668;2023-08-30T02:06:50;2.97;;;2.87;;
2388;SDS011;1205;47.984;7.668;2023-08-30T02:09:29;4.00;;;3.80;;
2388;SDS011;1205;47.984;7.668;2023-08-30T02:12:07;4.40;;;3.40;;
2388;SDS011;1205;47.984;7.668;2023-08-30T02:14:47;8.80;;;3.33;;
2388;SDS011;1205;47.984;7.668;2023-08-30T02:17:14;11.53;;;2.90;;
2388;SDS011;1205;47.984;7.668;2023-08-30T02:19:41;3.10;;;3.00;;
2388;SDS011;1205;47.984;7.668;2023-08-30T02:22:08;5.77;;;3.17;;
2388;SDS011;1205;47.984;7.668;2023-08-30T02:24:34;4.10;;;3.77;;
2388;SDS011;1205;47.984;7.668;2023-08-30T02:26:59;4.20;;;3.87;;
2388;SDS011;1205;47.984;7.668;2023-08-30T02:29:25;3.47;;;3.27;;
2388;SDS011;1205;47.984;7.668;2023-08-30T02:31:50;4.03;;;3.83;;
2388;SDS011;1205;47.984;7.668;2023-08-30T02:34:16;4.63;;;4.10;;
2388;SDS011;1205;47.984;7.668;2023-08-30T02:36:42;3.63;;;3.33;;
2388;SDS011;1205;47.984;7.668;2023-08-30T02:39:07;3.70;;;3.40;;
2388;SDS011;1205;47.984;7.668;2023-08-30T02:41:33;3.73;;;3.43;;
2388;SDS011;1205;47.984;7.668;2023-08-30T02:43:59;3.77;;;3.60;;
2388;SDS011;1205;47.984;7.668;2023-08-30T02:46:25;4.03;;;3.73;;
2388;SDS011;1205;47.984;7.668;2023-08-30T02:48:52;5.93;;;4.10;;
2388;SDS011;1205;47.984;7.668;2023-08-30T02:51:17;7.67;;;3.70;;
2388;SDS011;1205;47.984;7.668;2023-08-30T02:53:43;4.33;;;3.73;;
2388;SDS011;1205;47.984;7.668;2023-08-30T02:56:08;3.80;;;3.30;;
2388;SDS011;1205;47.984;7.668;2023-08-30T02:58:36;4.57;;;4.13;;
2388;SDS011;1205;47.984;7.668;2023-08-30T03:01:02;3.53;;;3.10;;
2388;SDS011;1205;47.984;7.668;2023-08-30T03:03:27;6.07;;;2.73;;
2388;SDS011;1205;47.984;7.668;2023-08-30T03:05:53;5.60;;;2.80;;
2388;SDS011;1205;47.984;7.668;2023-08-30T03:08:18;2.70;;;2.50;;
2388;SDS011;1205;47.984;7.668;2023-08-30T03:10:44;2.70;;;2.60;;
2388;SDS011;1205;47.984;7.668;2023-08-30T03:13:10;2.30;;;2.20;;
2388;SDS011;1205;47.984;7.668;2023-08-30T03:15:35;3.60;;;3.30;;
2388;SDS011;1205;47.984;7.668;2023-08-30T03:18:01;3.13;;;2.80;;
2388;SDS011;1205;47.984;7.668;2023-08-30T03:20:26;4.57;;;3.47;;
2388;SDS011;1205;47.984;7.668;2023-08-30T03:22:55;3.70;;;3.33;;
2388;SDS011;1205;47.984;7.668;2023-08-30T03:25:23;3.23;;;3.13;;
2388;SDS011;1205;47.984;7.668;2023-08-30T03:27:48;2.97;;;2.77;;
2388;SDS011;1205;47.984;7.668;2023-08-30T03:30:14;3.20;;;3.10;;
2388;SDS011;1205;47.984;7.668;2023-08-30T03:32:40;2.47;;;2.30;;
2388;SDS011;1205;47.984;7.668;2023-08-30T03:35:05;2.70;;;2.50;;
2388;SDS011;1205;47.984;7.668;2023-08-30T03:37:31;2.40;;;2.30;;
2388;SDS011;1205;47.984;7.668;2023-08-30T03:39:57;2.73;;;2.53;;
2388;SDS011;1205;47.984;7.668;2023-08-30T03:42:23;2.43;;;2.33;;
2388;SDS011;1205;47.984;7.668;2023-08-30T03:44:48;5.67;;;2.77;;
2388;SDS011;1205;47.984;7.668;2023-08-30T03:47:14;2.80;;;2.70;;
2388;SDS011;1205;47.984;7.668;2023-08-30T03:49:39;2.23;;;2.10;;
2388;SDS011;1205;47.984;7.668;2023-08-30T03:52:05;3.57;;;2.20;;
2388;SDS011;1205;47.984;7.668;2023-08-30T03:54:31;2.80;;;2.70;;
2388;SDS011;1205;47.984;7.668;2023-08-30T03:56:57;6.33;;;2.83;;
2388;SDS011;1205;47.984;7.668;2023-08-30T03:59:22;3.27;;;3.07;;
2388;SDS011;1205;47.984;7.668;2023-08-30T04:01:50;3.37;;;3.07;;
2388;SDS011;1205;47.984;7.668;2023-08-30T04:04:16;3.10;;;3.00;;
2388;SDS011;1205;47.984;7.668;2023-08-30T04:06:41;2.80;;;2.70;;
2388;SDS011;1205;47.984;7.668;2023-08-30T04:09:07;6.90;;;2.87;;
2388;SDS011;1205;47.984;7.668;2023-08-30T04:11:33;2.70;;;2.60;;
2388;SDS011;1205;47.984;7.668;2023-08-30T04:13:58;2.80;;;2.63;;
2388;SDS011;1205;47.984;7.668;2023-08-30T04:16:24;2.80;;;2.70;;
2388;SDS011;1205;47.984;7.668;2023-08-30T04:18:49;2.50;;;2.30;;
2388;SDS011;1205;47.984;7.668;2023-08-30T04:21:15;3.57;;;2.77;;
2388;SDS011;1205;47.984;7.668;2023-08-30T04:23:41;4.33;;;2.70;;
2388;SDS011;1205;47.984;7.668;2023-08-30T04:26:06;3.30;;;2.90;;
2388;SDS011;1205;47.984;7.668;2023-08-30T04:28:32;3.93;;;2.93;;
2388;SDS011;1205;47.984;7.668;2023-08-30T04:30:58;6.63;;;2.73;;
2388;SDS011;1205;47.984;7.668;2023-08-30T04:33:24;6.00;;;2.67;;
2388;SDS011;1205;47.984;7.668;2023-08-30T04:35:51;2.30;;;2.00;;
2388;SDS011;1205;47.984;7.668;2023-08-30T04:38:17;2.20;;;2.10;;
2388;SDS011;1205;47.984;7.668;2023-08-30T04:40:42;2.70;;;2.60;;
2388;SDS011;1205;47.984;7.668;2023-08-30T04:43:08;3.10;;;2.60;;
2388;SDS011;1205;47.984;7.668;2023-08-30T04:45:34;2.53;;;2.43;;
2388;SDS011;1205;47.984;7.668;2023-08-30T04:48:00;2.77;;;2.67;;
2388;SDS011;1205;47.984;7.668;2023-08-30T04:50:25;3.00;;;2.80;;
2388;SDS011;1205;47.984;7.668;2023-08-30T04:52:51;2.90;;;2.80;;
2388;SDS011;1205;47.984;7.668;2023-08-30T04:55:17;3.10;;;2.67;;
2388;SDS011;1205;47.984;7.668;2023-08-30T04:57:42;2.90;;;2.80;;
2388;SDS011;1205;47.984;7.668;2023-08-30T05:00:10;4.00;;;2.77;;
2388;SDS011;1205;47.984;7.668;2023-08-30T05:02:37;3.80;;;3.07;;
2388;SDS011;1205;47.984;7.668;2023-08-30T05:05:02;4.03;;;3.23;;
2388;SDS011;1205;47.984;7.668;2023-08-30T05:07:28;4.60;;;3.37;;
2388;SDS011;1205;47.984;7.668;2023-08-30T05:09:54;6.10;;;3.60;;
2388;SDS011;1205;47.984;7.668;2023-08-30T05:12:20;3.90;;;3.30;;
2388;SDS011;1205;47.984;7.668;2023-08-30T05:14:45;4.37;;;3.70;;
2388;SDS011;1205;47.984;7.668;2023-08-30T05:17:11;4.27;;;3.50;;
2388;SDS011;1205;47.984;7.668;2023-08-30T05:19:36;3.97;;;3.60;;
2388;SDS011;1205;47.984;7.668;2023-08-30T05:22:02;3.43;;;3.13;;
2388;SDS011;1205;47.984;7.668;2023-08-30T05:24:28;3.70;;;3.40;;
2388;SDS011;1205;47.984;7.668;2023-08-30T05:26:54;3.13;;;2.77;;
2388;SDS011;1205;47.984;7.668;2023-08-30T05:29:20;9.60;;;3.60;;
2388;SDS011;1205;47.984;7.668;2023-08-30T05:31:45;8.40;;;3.90;;
2388;SDS011;1205;47.984;7.668;2023-08-30T05:34:11;6.60;;;3.47;;
2388;SDS011;1205;47.984;7.668;2023-08-30T05:36:36;3.33;;;3.10;;
2388;SDS011;1205;47.984;7.668;2023-08-30T05:39:02;4.00;;;3.20;;
2388;SDS011;1205;47.984;7.668;2023-08-30T05:41:28;3.00;;;2.80;;
2388;SDS011;1205;47.984;7.668;2023-08-30T05:43:54;2.60;;;2.50;;
2388;SDS011;1205;47.984;7.668;2023-08-30T05:46:20;4.40;;;2.87;;
2388;SDS011;1205;47.984;7.668;2023-08-30T05:48:46;4.37;;;2.73;;
2388;SDS011;1205;47.984;7.668;2023-08-30T05:51:11;3.03;;;2.93;;
2388;SDS011;1205;47.984;7.668;2023-08-30T05:53:37;5.00;;;2.70;;
2388;SDS011;1205;47.984;7.668;2023-08-30T05:56:03;2.70;;;2.50;;
2388;SDS011;1205;47.984;7.668;2023-08-30T05:58:28;3.10;;;3.00;;
2388;SDS011;1205;47.984;7.668;2023-08-30T06:00:54;3.03;;;2.80;;
2388;SDS011;1205;47.984;7.668;2023-08-30T06:03:21;3.33;;;3.07;;
2388;SDS011;1205;47.984;7.668;2023-08-30T06:05:46;2.90;;;2.70;;
2388;SDS011;1205;47.984;7.668;2023-08-30T06:08:13;2.57;;;2.47;;
2388;SDS011;1205;47.984;7.668;2023-08-30T06:10:39;3.23;;;3.03;;
2388;SDS011;1205;47.984;7.668;2023-08-30T06:13:05;2.67;;;2.47;;
2388;SDS011;1205;47.984;7.668;2023-08-30T06:15:30;2.63;;;2.53;;
2388;SDS011;1205;47.984;7.668;2023-08-30T06:17:56;4.07;;;2.50;;
2388;SDS011;1205;47.984;7.668;2023-08-30T06:20:23;1.93;;;1.93;;
2388;SDS011;1205;47.984;7.668;2023-08-30T06:22:49;2.63;;;2.43;;
2388;SDS011;1205;47.984;7.668;2023-08-30T06:25:14;4.83;;;2.80;;
2388;SDS011;1205;47.984;7.668;2023-08-30T06:27:54;2.03;;;2.00;;
2388;SDS011;1205;47.984;7.668;2023-08-30T06:30:21;2.43;;;2.33;;
2388;SDS011;1205;47.984;7.668;2023-08-30T06:32:47;2.90;;;2.70;;
2388;SDS011;1205;47.984;7.668;2023-08-30T06:35:14;2.27;;;2.20;;
2388;SDS011;1205;47.984;7.668;2023-08-30T06:37:40;2.80;;;2.60;;
2388;SDS011;1205;47.984;7.668;2023-08-30T06:40:05;2.70;;;2.50;;
2388;SDS011;1205;47.984;7.668;2023-08-30T06:42:32;2.40;;;2.30;;
2388;SDS011;1205;47.984;7.668;2023-08-30T06:44:57;14.23;;;2.93;;
2388;SDS011;1205;47.984;7.668;2023-08-30T06:47:23;3.33;;;2.50;;
2388;SDS011;1205;47.984;7.668;2023-08-30T06:49:48;2.30;;;2.20;;
2388;SDS011;1205;47.984;7.668;2023-08-30T06:52:14;2.40;;;2.30;;
2388;SDS011;1205;47.984;7.668;2023-08-30T06:54:39;2.50;;;2.30;;
2388;SDS011;1205;47.984;7.668;2023-08-30T06:57:05;3.97;;;2.93;;
2388;SDS011;1205;47.984;7.668;2023-08-30T06:59:32;5.47;;;2.33;;
2388;SDS011;1205;47.984;7.668;2023-08-30T07:01:58;3.43;;;2.30;;
2388;SDS011;1205;47.984;7.668;2023-08-30T07:04:23;2.90;;;2.73;;
2388;SDS011;1205;47.984;7.668;2023-08-30T07:06:49;2.20;;;2.10;;
2388;SDS011;1205;47.984;7.668;2023-08-30T07:09:15;3.00;;;2.80;;
2388;SDS011;1205;47.984;7.668;2023-08-30T07:11:42;2.50;;;2.30;;
2388;SDS011;1205;47.984;7.668;2023-08-30T07:14:12;2.40;;;2.30;;
2388;SDS011;1205;47.984;7.668;2023-08-30T07:16:38;3.43;;;2.80;;
2388;SDS011;1205;47.984;7.668;2023-08-30T07:19:04;2.77;;;2.57;;
2388;SDS011;1205;47.984;7.668;2023-08-30T07:21:30;3.20;;;2.90;;
2388;SDS011;1205;47.984;7.668;2023-08-30T07:23:56;3.63;;;2.60;;
2388;SDS011;1205;47.984;7.668;2023-08-30T07:26:21;2.93;;;2.50;;
2388;SDS011;1205;47.984;7.668;2023-08-30T07:28:47;4.53;;;2.83;;
2388;SDS011;1205;47.984;7.668;2023-08-30T07:31:12;2.63;;;2.43;;
2388;SDS011;1205;47.984;7.668;2023-08-30T07:33:43;2.67;;;2.47;;
2388;SDS011;1205;47.984;7.668;2023-08-30T07:36:09;4.13;;;3.00;;
2388;SDS011;1205;47.984;7.668;2023-08-30T07:38:36;3.03;;;2.83;;
2388;SDS011;1205;47.984;7.668;2023-08-30T07:41:02;3.00;;;2.90;;
2388;SDS011;1205;47.984;7.668;2023-08-30T07:43:27;2.87;;;2.53;;
2388;SDS011;1205;47.984;7.668;2023-08-30T07:45:53;3.10;;;2.90;;
2388;SDS011;1205;47.984;7.668;2023-08-30T07:48:18;2.50;;;2.40;;
2388;SDS011;1205;47.984;7.668;2023-08-30T07:50:44;3.13;;;3.00;;
2388;SDS011;1205;47.984;7.668;2023-08-30T07:53:10;2.30;;;2.20;;
2388;SDS011;1205;47.984;7.668;2023-08-30T07:55:36;2.70;;;2.60;;
2388;SDS011;1205;47.984;7.668;2023-08-30T07:58:01;2.30;;;2.20;;
2388;SDS011;1205;47.984;7.668;2023-08-30T08:00:28;11.50;;;2.83;;
2388;SDS011;1205;47.984;7.668;2023-08-30T08:02:56;4.60;;;3.00;;
2388;SDS011;1205;47.984;7.668;2023-08-30T08:05:22;3.53;;;2.90;;
2388;SDS011;1205;47.984;7.668;2023-08-30T08:07:51;3.30;;;2.90;;
2388;SDS011;1205;47.984;7.668;2023-08-30T08:10:17;4.73;;;2.70;;
2388;SDS011;1205;47.984;7.668;2023-08-30T08:12:43;3.23;;;2.93;;
2388;SDS011;1205;47.984;7.668;2023-08-30T08:15:09;8.20;;;2.60;;
2388;SDS011;1205;47.984;7.668;2023-08-30T08:17:34;3.10;;;2.90;;
2388;SDS011;1205;47.984;7.668;2023-08-30T08:20:00;4.20;;;2.90;;
2388;SDS011;1205;47.984;7.668;2023-08-30T08:22:26;3.00;;;2.80;;
2388;SDS011;1205;47.984;7.668;2023-08-30T08:24:51;3.03;;;2.80;;
2388;SDS011;1205;47.984;7.668;2023-08-30T08:27:18;3.37;;;3.10;;
2388;SDS011;1205;47.984;7.668;2023-08-30T08:29:44;4.40;;;3.40;;
2388;SDS011;1205;47.984;7.668;2023-08-30T08:32:10;3.03;;;2.80;;
2388;SDS011;1205;47.984;7.668;2023-08-30T08:34:35;8.03;;;3.10;;
2388;SDS011;1205;47.984;7.668;2023-08-30T08:37:01;3.00;;;2.80;;
2388;SDS011;1205;47.984;7.668;2023-08-30T08:39:26;2.50;;;2.40;;
2388;SDS011;1205;47.984;7.668;2023-08-30T08:41:52;3.00;;;2.80;;
2388;SDS011;1205;47.984;7.668;2023-08-30T08:44:19;5.20;;;2.63;;
2388;SDS011;1205;47.984;7.668;2023-08-30T08:46:47;2.57;;;2.47;;
2388;SDS011;1205;47.984;7.668;2023-08-30T08:49:14;2.60;;;2.50;;
2388;SDS011;1205;47.984;7.668;2023-08-30T08:51:41;3.87;;;2.80;;
2388;SDS011;1205;47.984;7.668;2023-08-30T08:54:08;2.90;;;2.80;;
2388;SDS011;1205;47.984;7.668;2023-08-30T08:56:34;3.13;;;2.80;;
2388;SDS011;1205;47.984;7.668;2023-08-30T08:59:00;3.17;;;2.97;;
2388;SDS011;1205;47.984;7.668;2023-08-30T09:01:26;3.53;;;3.23;;
2388;SDS011;1205;47.984;7.668;2023-08-30T09:03:52;5.90;;;3.17;;
2388;SDS011;1205;47.984;7.668;2023-08-30T09:06:18;5.00;;;2.50;;
2388;SDS011;1205;47.984;7.668;2023-08-30T09:08:44;2.53;;;2.33;;
2388;SDS011;1205;47.984;7.668;2023-08-30T09:11:09;2.57;;;2.33;;
2388;SDS011;1205;47.984;7.668;2023-08-30T09:13:35;3.50;;;3.30;;
2388;SDS011;1205;47.984;7.668;2023-08-30T09:16:01;3.90;;;3.10;;
2388;SDS011;1205;47.984;7.668;2023-08-30T09:18:27;5.63;;;2.77;;
2388;SDS011;1205;47.984;7.668;2023-08-30T09:21:04;3.23;;;3.03;;
2388;SDS011;1205;47.984;7.668;2023-08-30T09:23:36;4.37;;;3.00;;
2388;SDS011;1205;47.984;7.668;2023-08-30T09:26:03;3.03;;;2.83;;
2388;SDS011;1205;47.984;7.668;2023-08-30T09:28:29;3.23;;;2.67;;
2388;SDS011;1205;47.984;7.668;2023-08-30T09:30:57;3.23;;;3.03;;
2388;SDS011;1205;47.984;7.668;2023-08-30T09:33:31;3.40;;;3.13;;
2388;SDS011;1205;47.984;7.668;2023-08-30T09:35:57;6.33;;;3.03;;
2388;SDS011;1205;47.984;7.668;2023-08-30T09:38:24;3.20;;;2.80;;
2388;SDS011;1205;47.984;7.668;2023-08-30T09:40:50;4.07;;;2.77;;
2388;SDS011;1205;47.984;7.668;2023-08-30T09:43:19;4.43;;;3.10;;
2388;SDS011;1205;47.984;7.668;2023-08-30T09:45:50;4.13;;;3.73;;
2388;SDS011;1205;47.984;7.668;2023-08-30T09:48:17;3.37;;;3.17;;
2388;SDS011;1205;47.984;7.668;2023-08-30T09:50:47;3.90;;;3.50;;
2388;SDS011;1205;47.984;7.668;2023-08-30T09:53:17;4.10;;;3.90;;
2388;SDS011;1205;47.984;7.668;2023-08-30T09:55:44;3.47;;;3.30;;
2388;SDS011;1205;47.984;7.668;2023-08-30T09:58:11;3.33;;;3.13;;
2388;SDS011;1205;47.984;7.668;2023-08-30T10:00:37;4.30;;;3.70;;
2388;SDS011;1205;47.984;7.668;2023-08-30T10:03:03;3.90;;;3.60;;
2388;SDS011;1205;47.984;7.668;2023-08-30T10:05:29;4.40;;;3.53;;
2388;SDS011;1205;47.984;7.668;2023-08-30T10:07:57;2.90;;;2.80;;
2388;SDS011;1205;47.984;7.668;2023-08-30T10:10:23;4.00;;;3.80;;
2388;SDS011;1205;47.984;7.668;2023-08-30T10:12:50;4.23;;;3.93;;
2388;SDS011;1205;47.984;7.668;2023-08-30T10:15:19;3.33;;;3.13;;
2388;SDS011;1205;47.984;7.668;2023-08-30T10:17:46;3.37;;;3.20;;
2388;SDS011;1205;47.984;7.668;2023-08-30T10:20:15;3.97;;;3.53;;
2388;SDS011;1205;47.984;7.668;2023-08-30T10:22:40;3.40;;;3.17;;
2388;SDS011;1205;47.984;7.668;2023-08-30T10:25:18;3.37;;;3.27;;
2388;SDS011;1205;47.984;7.668;2023-08-30T10:27:47;9.20;;;3.37;;
2388;SDS011;1205;47.984;7.668;2023-08-30T10:30:14;3.07;;;2.33;;
2388;SDS011;1205;47.984;7.668;2023-08-30T10:32:43;3.13;;;2.93;;
2388;SDS011;1205;47.984;7.668;2023-08-30T10:35:11;2.60;;;2.40;;
2388;SDS011;1205;47.984;7.668;2023-08-30T10:37:40;4.00;;;3.47;;
2388;SDS011;1205;47.984;7.668;2023-08-30T10:40:07;3.70;;;3.43;;
2388;SDS011;1205;47.984;7.668;2023-08-30T10:42:33;3.30;;;3.10;;
2388;SDS011;1205;47.984;7.668;2023-08-30T10:45:00;3.87;;;3.50;;
2388;SDS011;1205;47.984;7.668;2023-08-30T10:47:28;4.13;;;3.53;;
2388;SDS011;1205;47.984;7.668;2023-08-30T10:49:55;3.43;;;3.23;;
2388;SDS011;1205;47.984;7.668;2023-08-30T10:52:22;3.90;;;3.60;;
2388;SDS011;1205;47.984;7.668;2023-08-30T10:54:49;3.80;;;3.60;;
2388;SDS011;1205;47.984;7.668;2023-08-30T10:57:24;4.87;;;4.47;;
2388;SDS011;1205;47.984;7.668;2023-08-30T11:02:35;4.57;;;3.97;;
2388;SDS011;1205;47.984;7.668;2023-08-30T11:05:07;3.77;;;3.60;;
2388;SDS011;1205;47.984;7.668;2023-08-30T11:07:33;4.67;;;4.27;;
2388;SDS011;1205;47.984;7.668;2023-08-30T11:09:59;4.53;;;4.23;;
2388;SDS011;1205;47.984;7.668;2023-08-30T11:12:25;5.37;;;5.00;;
2388;SDS011;1205;47.984;7.668;2023-08-30T11:14:53;9.80;;;4.73;;
2388;SDS011;1205;47.984;7.668;2023-08-30T11:17:19;5.00;;;4.20;;
2388;SDS011;1205;47.984;7.668;2023-08-30T11:19:45;6.90;;;3.80;;
2388;SDS011;1205;47.984;7.668;2023-08-30T11:22:13;4.20;;;3.93;;
2388;SDS011;1205;47.984;7.668;2023-08-30T11:24:41;2.67;;;2.30;;
2388;SDS011;1205;47.984;7.668;2023-08-30T11:27:08;5.70;;;2.23;;
2388;SDS011;1205;47.984;7.668;2023-08-30T11:29:34;2.30;;;2.20;;
2388;SDS011;1205;47.984;7.668;2023-08-30T11:32:00;2.53;;;2.43;;
2388;SDS011;1205;47.984;7.668;2023-08-30T11:34:26;3.70;;;3.50;;
2388;SDS011;1205;47.984;7.668;2023-08-30T11:36:51;3.40;;;3.10;;
2388;SDS011;1205;47.984;7.668;2023-08-30T11:39:17;3.17;;;2.90;;
2388;SDS011;1205;47.984;7.668;2023-08-30T11:41:43;39.77;;;3.60;;
2388;SDS011;1205;47.984;7.668;2023-08-30T11:44:09;2.30;;;2.20;;
2388;SDS011;1205;47.984;7.668;2023-08-30T11:46:35;2.47;;;2.20;;
2388;SDS011;1205;47.984;7.668;2023-08-30T11:49:00;2.00;;;1.87;;
2388;SDS011;1205;47.984;7.668;2023-08-30T11:51:27;2.63;;;1.87;;
2388;SDS011;1205;47.984;7.668;2023-08-30T11:53:54;1.90;;;1.67;;
2388;SDS011;1205;47.984;7.668;2023-08-30T11:56:22;2.80;;;1.87;;
2388;SDS011;1205;47.984;7.668;2023-08-30T11:58:48;1.77;;;1.67;;
2388;SDS011;1205;47.984;7.668;2023-08-30T12:01:14;3.33;;;1.80;;
2388;SDS011;1205;47.984;7.668;2023-08-30T12:03:40;1.37;;;1.33;;
2388;SDS011;1205;47.984;7.668;2023-08-30T12:06:09;1.60;;;1.60;;
2388;SDS011;1205;47.984;7.668;2023-08-30T12:08:35;1.63;;;1.53;;
2388;SDS011;1205;47.984;7.668;2023-08-30T12:11:01;1.70;;;1.60;;
2388;SDS011;1205;47.984;7.668;2023-08-30T12:13:27;1.77;;;1.67;;
2388;SDS011;1205;47.984;7.668;2023-08-30T12:15:54;2.20;;;2.00;;
2388;SDS011;1205;47.984;7.668;2023-08-30T12:18:21;1.70;;;1.70;;
2388;SDS011;1205;47.984;7.668;2023-08-30T12:23:23;3.50;;;2.00;;
2388;SDS011;1205;47.984;7.668;2023-08-30T12:28:34;1.87;;;1.77;;
2388;SDS011;1205;47.984;7.668;2023-08-30T12:31:01;1.70;;;1.60;;
2388;SDS011;1205;47.984;7.668;2023-08-30T12:33:28;2.10;;;1.93;;
2388;SDS011;1205;47.984;7.668;2023-08-30T12:35:54;4.70;;;1.70;;
2388;SDS011;1205;47.984;7.668;2023-08-30T12:38:20;2.07;;;1.97;;
2388;SDS011;1205;47.984;7.668;2023-08-30T12:40:47;2.37;;;1.80;;
2388;SDS011;1205;47.984;7.668;2023-08-30T12:43:14;1.77;;;1.77;;
2388;SDS011;1205;47.984;7.668;2023-08-30T12:45:40;1.67;;;1.60;;
2388;SDS011;1205;47.984;7.668;2023-08-30T12:48:07;6.00;;;1.63;;
2388;SDS011;1205;47.984;7.668;2023-08-30T12:50:33;1.33;;;1.33;;
2388;SDS011;1205;47.984;7.668;2023-08-30T12:53:03;4.20;;;1.87;;
2388;SDS011;1205;47.984;7.668;2023-08-30T12:55:29;1.50;;;1.40;;
2388;SDS011;1205;47.984;7.668;2023-08-30T12:57:55;1.83;;;1.17;;
2388;SDS011;1205;47.984;7.668;2023-08-30T13:00:21;1.27;;;1.27;;
2388;SDS011;1205;47.984;7.668;2023-08-30T13:02:47;1.27;;;1.27;;
2388;SDS011;1205;47.984;7.668;2023-08-30T13:05:13;1.97;;;1.83;;
2388;SDS011;1205;47.984;7.668;2023-08-30T13:07:38;1.40;;;1.40;;
2388;SDS011;1205;47.984;7.668;2023-08-30T13:10:05;1.40;;;1.30;;
2388;SDS011;1205;47.984;7.668;2023-08-30T13:12:31;1.70;;;1.60;;
2388;SDS011;1205;47.984;7.668;2023-08-30T13:14:57;1.80;;;1.70;;
2388;SDS011;1205;47.984;7.668;2023-08-30T13:17:22;1.70;;;1.60;;
2388;SDS011;1205;47.984;7.668;2023-08-30T13:19:48;1.40;;;1.40;;
2388;SDS011;1205;47.984;7.668;2023-08-30T13:22:14;1.60;;;1.60;;
2388;SDS011;1205;47.984;7.668;2023-08-30T13:24:40;7.80;;;1.60;;
2388;SDS011;1205;47.984;7.668;2023-08-30T13:27:05;1.93;;;1.70;;
2388;SDS011;1205;47.984;7.668;2023-08-30T13:29:31;3.57;;;1.40;;
2388;SDS011;1205;47.984;7.668;2023-08-30T13:31:57;1.40;;;1.40;;
2388;SDS011;1205;47.984;7.668;2023-08-30T13:34:22;1.20;;;1.20;;
2388;SDS011;1205;47.984;7.668;2023-08-30T13:36:48;2.30;;;1.30;;
2388;SDS011;1205;47.984;7.668;2023-08-30T13:39:13;1.67;;;1.00;;
2388;SDS011;1205;47.984;7.668;2023-08-30T13:41:39;2.00;;;1.50;;
2388;SDS011;1205;47.984;7.668;2023-08-30T13:44:05;2.10;;;1.40;;
2388;SDS011;1205;47.984;7.668;2023-08-30T13:46:31;2.67;;;1.60;;
2388;SDS011;1205;47.984;7.668;2023-08-30T13:48:56;7.50;;;1.60;;
2388;SDS011;1205;47.984;7.668;2023-08-30T13:51:22;1.30;;;1.20;;
2388;SDS011;1205;47.984;7.668;2023-08-30T13:53:49;3.87;;;1.60;;
2388;SDS011;1205;47.984;7.668;2023-08-30T13:56:15;2.27;;;1.47;;
2388;SDS011;1205;47.984;7.668;2023-08-30T13:58:41;1.47;;;1.37;;
2388;SDS011;1205;47.984;7.668;2023-08-30T14:01:07;4.00;;;1.30;;
2388;SDS011;1205;47.984;7.668;2023-08-30T14:03:32;1.70;;;1.53;;
2388;SDS011;1205;47.984;7.668;2023-08-30T14:05:58;3.77;;;2.00;;
2388;SDS011;1205;47.984;7.668;2023-08-30T14:08:24;1.77;;;1.50;;
2388;SDS011;1205;47.984;7.668;2023-08-30T14:10:49;2.30;;;1.90;;
2388;SDS011;1205;47.984;7.668;2023-08-30T14:13:15;1.43;;;1.33;;
2388;SDS011;1205;47.984;7.668;2023-08-30T14:15:41;2.80;;;1.63;;
2388;SDS011;1205;47.984;7.668;2023-08-30T14:18:09;2.40;;;1.67;;
2388;SDS011;1205;47.984;7.668;2023-08-30T14:20:34;2.33;;;1.73;;
2388;SDS011;1205;47.984;7.668;2023-08-30T14:23:00;3.50;;;1.70;;
2388;SDS011;1205;47.984;7.668;2023-08-30T14:25:26;1.13;;;1.13;;
2388;SDS011;1205;47.984;7.668;2023-08-30T14:27:51;2.20;;;2.10;;
2388;SDS011;1205;47.984;7.668;2023-08-30T14:30:17;1.87;;;1.80;;
2388;SDS011;1205;47.984;7.668;2023-08-30T14:32:42;1.50;;;1.40;;
2388;SDS011;1205;47.984;7.668;2023-08-30T14:35:08;1.70;;;1.60;;
2388;SDS011;1205;47.984;7.668;2023-08-30T14:37:34;2.60;;;1.70;;
2388;SDS011;1205;47.984;7.668;2023-08-30T14:40:02;1.47;;;1.37;;
2388;SDS011;1205;47.984;7.668;2023-08-30T14:42:29;1.97;;;1.87;;
2388;SDS011;1205;47.984;7.668;2023-08-30T14:44:54;1.80;;;1.70;;
2388;SDS011;1205;47.984;7.668;2023-08-30T14:47:21;2.60;;;1.63;;
2388;SDS011;1205;47.984;7.668;2023-08-30T14:49:46;2.53;;;1.70;;
2388;SDS011;1205;47.984;7.668;2023-08-30T14:52:12;1.40;;;1.30;;
2388;SDS011;1205;47.984;7.668;2023-08-30T14:54:38;2.63;;;1.60;;
2388;SDS011;1205;47.984;7.668;2023-08-30T14:57:04;1.50;;;1.40;;
2388;SDS011;1205;47.984;7.668;2023-08-30T14:59:30;1.50;;;1.50;;
2388;SDS011;1205;47.984;7.668;2023-08-30T15:01:55;1.53;;;1.43;;
2388;SDS011;1205;47.984;7.668;2023-08-30T15:04:21;1.63;;;1.53;;
2388;SDS011;1205;47.984;7.668;2023-08-30T15:06:46;2.20;;;2.00;;
2388;SDS011;1205;47.984;7.668;2023-08-30T15:09:12;1.90;;;1.70;;
2388;SDS011;1205;47.984;7.668;2023-08-30T15:11:41;3.63;;;1.53;;
2388;SDS011;1205;47.984;7.668;2023-08-30T15:14:10;10.07;;;2.40;;
2388;SDS011;1205;47.984;7.668;2023-08-30T15:16:36;3.53;;;2.20;;
2388;SDS011;1205;47.984;7.668;2023-08-30T15:19:02;2.30;;;1.80;;
2388;SDS011;1205;47.984;7.668;2023-08-30T15:21:28;1.40;;;1.40;;
2388;SDS011;1205;47.984;7.668;2023-08-30T15:23:53;3.47;;;1.73;;